Time;durP1;ratioP1;P1;durP2;ratioP2;P2;SDS_P1;SDS_P2;PMS_P1;PMS_P2;Temp;Humidity;BMP_temperature;BMP_pressure;BME280_temperature;BME280_humidity;BME280_pressure;Samples;Min_cycle;Max_cycle;Signal;HPM_P1;HPM_P2
2022/02/05 00:02:42;;;;;;;16.50;8.30;;;;;;;-0.41;79.74;98489.00;105316;1271;74974;-24
2022/02/05 00:05:13;;;;;;;16.10;7.70;;;;;;;-0.70;80.56;98489.55;105155;1271;74422;-24
2022/02/05 00:07:49;;;;;;;19.90;10.70;;;;;;;-0.74;81.45;98489.08;105294;1271;62866;-24
2022/02/05 00:10:58;;;;;;;17.50;10.90;;;;;;;-0.25;80.11;98492.52;105063;1271;62236;-24
2022/02/05 00:43:11;;;;;;;18.30;11.40;;;;;;;0.05;79.32;98473.73;105053;1271;75796;-24
2022/02/05 00:45:44;;;;;;;17.10;9.80;;;;;;;-0.07;79.25;98468.30;104735;1271;73004;-24
2022/02/05 00:48:13;;;;;;;19.70;9.70;;;;;;;-0.27;79.75;98464.61;104883;1271;61536;-24
2022/02/05 00:50:48;;;;;;;8.40;4.10;;;;;;;-0.45;80.38;98463.08;104957;1271;61234;-25
2022/02/05 00:53:39;;;;;;;12.50;5.60;;;;;;;-0.62;81.24;98457.52;104899;1271;74757;-24
2022/02/05 00:56:13;;;;;;;18.50;10.50;;;;;;;-0.15;80.54;98453.48;105129;1270;75533;-24
2022/02/05 00:58:42;;;;;;;8.00;5.70;;;;;;;0.21;79.10;98454.02;105108;1271;72965;-24
2022/02/05 01:01:11;;;;;;;18.30;9.10;;;;;;;0.17;78.97;98449.29;105203;1270;62132;-24
2022/02/05 01:03:41;;;;;;;17.00;9.40;;;;;;;-0.04;79.59;98446.67;105101;1271;61104;-24
2022/02/05 01:06:10;;;;;;;14.10;9.40;;;;;;;-0.28;80.02;98445.05;104930;1271;75616;-24
2022/02/05 01:08:38;;;;;;;13.70;8.10;;;;;;;-0.51;81.07;98446.09;104961;1271;75700;-24
2022/02/05 01:11:07;;;;;;;7.20;5.00;;;;;;;-0.42;81.50;98449.44;104825;1271;72712;-24
2022/02/05 01:13:36;;;;;;;15.50;8.70;;;;;;;0.07;79.97;98448.70;104990;1271;61886;-25
2022/02/05 01:18:57;;;;;;;18.40;10.80;;;;;;;-0.09;80.01;98451.34;104934;1271;75534;-24
2022/02/05 01:24:02;;;;;;;8.00;4.90;;;;;;;-0.49;81.57;98449.11;105265;1271;72833;-24
2022/02/05 01:26:37;;;;;;;8.40;4.80;;;;;;;-0.22;81.31;98449.40;105171;1271;62898;-23
2022/02/05 01:29:18;;;;;;;10.50;6.90;;;;;;;0.33;79.36;98447.62;105160;1271;62088;-23
2022/02/05 01:31:52;;;;;;;13.40;5.90;;;;;;;0.29;79.13;98447.66;105030;1271;75358;-23
2022/02/05 01:34:51;;;;;;;17.50;10.30;;;;;;;0.09;79.53;98441.94;104965;1271;75758;-24
2022/02/05 02:12:02;;;;;;;15.40;9.50;;;;;;;-0.31;81.53;98416.71;104918;1271;73602;-24
2022/02/05 02:17:42;;;;;;;20.30;10.30;;;;;;;0.25;79.40;98414.41;104932;1271;73339;-24
2022/02/05 02:25:23;;;;;;;10.80;7.20;;;;;;;-0.32;81.55;98414.52;104932;1271;74241;-23
2022/02/05 02:28:03;;;;;;;15.20;8.90;;;;;;;0.16;79.95;98413.14;104987;1271;74980;-23
2022/02/05 02:30:38;;;;;;;14.70;8.60;;;;;;;0.48;79.17;98416.33;104963;1271;73442;-23
2022/02/05 02:33:18;;;;;;;13.20;7.40;;;;;;;0.29;79.18;98409.91;105218;1271;61141;-23
2022/02/05 02:35:49;;;;;;;11.30;6.40;;;;;;;0.01;79.81;98406.48;105256;1271;61054;-24
2022/02/05 02:38:22;;;;;;;12.90;8.10;;;;;;;-0.21;80.67;98400.02;105201;1271;73053;-23
2022/02/05 02:43:31;;;;;;;10.00;7.80;;;;;;;0.23;80.12;98399.14;105242;1271;74528;-24
2022/02/05 02:45:59;;;;;;;16.00;7.80;;;;;;;0.34;79.13;98394.98;105242;1271;61228;-24
2022/02/05 02:48:28;;;;;;;14.00;9.10;;;;;;;0.12;79.76;98390.96;105004;1271;61227;-24
2022/02/05 02:59:35;;;;;;;14.00;6.60;;;;;;;0.38;79.18;98382.68;105018;1270;61124;-23
2022/02/05 03:02:12;;;;;;;15.20;8.80;;;;;;;0.27;78.92;98380.82;105139;1271;61133;-24
2022/02/05 03:04:40;;;;;;;7.90;4.80;;;;;;;0.07;79.31;98376.66;105017;1271;75358;-24
2022/02/05 03:07:09;;;;;;;15.00;7.30;;;;;;;-0.16;80.26;98371.49;104986;1271;75883;-24
2022/02/05 03:09:37;;;;;;;17.20;10.20;;;;;;;-0.01;80.45;98371.44;104921;1271;74468;-23
2022/02/05 03:12:06;;;;;;;19.80;10.50;;;;;;;0.28;79.71;98371.23;105025;1270;61143;-24
2022/02/05 03:14:35;;;;;;;13.80;9.10;;;;;;;0.28;79.20;98370.53;104829;1271;61134;-24
2022/02/05 03:17:15;;;;;;;7.60;4.70;;;;;;;0.07;79.69;98369.02;104983;1271;75263;-24
2022/02/05 03:19:48;;;;;;;9.70;6.70;;;;;;;-0.17;80.37;98370.83;105263;1270;76053;-24
2022/02/05 03:22:18;;;;;;;14.30;9.10;;;;;;;-0.10;80.99;98367.92;105141;1271;71833;-24
2022/02/05 03:24:46;;;;;;;9.70;4.50;;;;;;;0.33;79.19;98370.27;105018;1272;61412;-23
2022/02/05 03:27:17;;;;;;;15.30;8.40;;;;;;;0.38;78.71;98372.23;105065;1271;61991;-24
2022/02/05 03:29:48;;;;;;;16.50;7.90;;;;;;;0.19;78.96;98366.20;104805;1274;75496;-23
2022/02/05 03:32:19;;;;;;;12.80;7.50;;;;;;;-0.03;79.59;98360.95;105149;1271;75888;-24
2022/02/05 03:34:47;;;;;;;8.70;5.90;;;;;;;-0.21;80.38;98358.20;104895;1271;74888;-22
2022/02/05 03:37:18;;;;;;;12.40;7.00;;;;;;;0.10;80.04;98358.80;105134;1271;61128;-23
2022/02/05 03:39:47;;;;;;;9.80;6.10;;;;;;;0.51;78.51;98356.73;104972;1271;61144;-23
2022/02/05 03:42:15;;;;;;;9.30;4.30;;;;;;;0.51;78.18;98357.24;105243;1271;75664;-23
2022/02/05 03:44:44;;;;;;;12.00;7.10;;;;;;;0.27;78.74;98354.52;105224;1271;75868;-23
2022/02/05 03:47:12;;;;;;;18.20;8.30;;;;;;;0.03;79.23;98350.95;105191;1271;73213;-23
2022/02/05 03:49:41;;;;;;;8.80;5.80;;;;;;;-0.21;80.29;98343.90;104875;1271;61859;-23
2022/02/05 03:52:10;;;;;;;11.10;6.90;;;;;;;0.14;79.72;98347.65;105006;1270;61820;-23
2022/02/05 03:54:39;;;;;;;9.00;6.40;;;;;;;0.44;78.38;98351.80;104952;1271;75572;-23
2022/02/05 03:57:07;;;;;;;10.40;6.10;;;;;;;0.41;78.52;98356.04;104980;1268;76164;-23
2022/02/05 03:59:36;;;;;;;9.80;6.20;;;;;;;0.18;78.68;98358.02;104979;1271;74381;-23
2022/02/05 04:02:04;;;;;;;9.20;5.60;;;;;;;-0.02;79.30;98354.75;104912;1271;61535;-23
2022/02/05 04:04:33;;;;;;;12.40;5.60;;;;;;;-0.14;80.36;98344.60;104930;1271;62078;-24
2022/02/05 04:07:04;;;;;;;8.80;4.80;;;;;;;0.35;79.23;98345.27;104956;1271;75609;-23
2022/02/05 04:09:41;;;;;;;9.60;5.90;;;;;;;0.48;77.90;98339.29;104765;1271;75196;-23
2022/02/05 04:17:29;;;;;;;8.20;5.30;;;;;;;-0.11;79.54;98331.14;105215;1271;61113;-23
2022/02/05 04:19:58;;;;;;;8.00;4.10;;;;;;;0.07;79.52;98326.32;105267;1271;75358;-23
2022/02/05 04:22:27;;;;;;;10.20;5.90;;;;;;;0.44;78.21;98324.84;105189;1271;75963;-23
2022/02/05 04:24:55;;;;;;;15.00;7.90;;;;;;;0.29;78.13;98320.10;105245;1271;74508;-23
2022/02/05 04:27:23;;;;;;;10.50;6.30;;;;;;;0.22;78.31;98315.02;105112;1271;61112;-24
2022/02/05 04:29:52;;;;;;;15.40;6.40;;;;;;;-0.00;78.98;98312.85;105117;1271;61039;-23
2022/02/05 04:32:20;;;;;;;16.70;7.00;;;;;;;-0.17;79.76;98317.26;104977;1271;74428;-23
2022/02/05 04:34:49;;;;;;;10.60;6.30;;;;;;;0.25;78.68;98315.34;105267;1271;76083;-23
2022/02/05 04:37:20;;;;;;;19.80;7.10;;;;;;;0.38;77.88;98318.48;104943;1271;73417;-23
2022/02/05 04:39:58;;;;;;;11.40;5.90;;;;;;;0.31;78.02;98324.64;104910;1271;61264;-24
2022/02/05 04:42:38;;;;;;;10.30;5.50;;;;;;;0.10;78.40;98327.20;104905;1271;61098;-23
2022/02/05 04:45:40;;;;;;;11.60;5.70;;;;;;;-0.23;79.53;98327.44;104949;1271;74266;-23
2022/02/05 04:54:54;;;;;;;6.50;4.40;;;;;;;0.51;76.94;98335.56;104354;1277;61180;-23
2022/02/05 04:57:28;;;;;;;9.70;5.80;;;;;;;0.39;77.40;98340.08;104811;1271;61108;-23
2022/02/05 05:00:08;;;;;;;11.40;6.50;;;;;;;0.24;77.51;98337.61;105269;1271;73891;-23
2022/02/05 05:02:54;;;;;;;;;;;;;;;-0.04;78.51;98336.25;105291;1271;74466;-23
2022/02/05 05:08:34;;;;;;;5.00;3.30;;;;;;;0.70;76.23;98332.88;104845;1271;62318;-23
2022/02/05 05:21:55;;;;;;;7.20;4.60;;;;;;;0.74;76.41;98335.06;105141;1271;61130;-24
2022/02/05 05:24:23;;;;;;;7.30;4.30;;;;;;;0.86;75.23;98332.55;104884;1274;61033;-24
2022/02/05 05:26:52;;;;;;;10.40;6.20;;;;;;;0.77;75.50;98329.79;105010;1271;75502;-24
2022/02/05 05:29:20;;;;;;;9.50;5.80;;;;;;;0.58;76.19;98329.05;104881;1271;75082;-24
2022/02/05 05:31:49;;;;;;;6.70;4.30;;;;;;;0.37;76.56;98319.85;105001;1271;74329;-23
2022/02/05 05:34:17;;;;;;;13.70;4.60;;;;;;;0.17;77.47;98321.23;104941;1271;61411;-24
2022/02/05 05:36:46;;;;;;;11.60;6.80;;;;;;;0.26;77.90;98314.61;104797;1271;62246;-24
2022/02/05 05:39:15;;;;;;;8.70;5.20;;;;;;;0.80;76.04;98310.14;104641;1272;75714;-24
2022/02/05 05:41:43;;;;;;;10.80;4.90;;;;;;;0.83;75.48;98305.02;104997;1271;75637;-24
2022/02/05 05:46:47;;;;;;;8.30;4.60;;;;;;;0.46;76.40;98307.13;104926;1271;61002;-24
2022/02/05 05:49:22;;;;;;;12.60;7.20;;;;;;;0.23;77.05;98305.20;104901;1271;61554;-24
2022/02/05 05:51:50;;;;;;;8.60;6.40;;;;;;;0.06;77.58;98302.67;105239;1271;75674;-24
2022/02/05 05:54:18;;;;;;;6.60;4.60;;;;;;;0.30;77.74;98304.50;105168;1271;75048;-24
2022/02/05 05:56:47;;;;;;;8.30;5.40;;;;;;;0.73;76.14;98301.48;105123;1271;74173;-24
2022/02/05 05:59:15;;;;;;;14.60;7.40;;;;;;;0.68;75.83;98305.66;105077;1271;61170;-24
2022/02/05 06:01:43;;;;;;;11.70;6.50;;;;;;;0.56;76.02;98305.05;104993;1271;61178;-24
2022/02/05 06:04:12;;;;;;;6.00;4.50;;;;;;;0.30;76.79;98309.98;104941;1271;75274;-24
2022/02/05 06:06:41;;;;;;;9.60;4.90;;;;;;;0.13;77.30;98306.04;104987;1271;76299;-24
2022/02/05 06:09:10;;;;;;;7.10;5.20;;;;;;;0.33;77.52;98310.54;105115;1271;74164;-23
2022/02/05 06:11:39;;;;;;;8.20;5.20;;;;;;;0.79;75.68;98304.91;105160;1271;61032;-24
2022/02/05 06:14:07;;;;;;;13.00;7.60;;;;;;;0.79;75.11;98300.45;104906;1271;61036;-24
2022/02/05 06:16:37;;;;;;;7.80;4.30;;;;;;;0.64;75.62;98300.21;104965;1271;75482;-24
2022/02/05 06:19:05;;;;;;;10.10;5.30;;;;;;;0.42;76.18;98300.52;105042;1271;72371;-23
2022/02/05 06:21:35;;;;;;;13.30;8.30;;;;;;;0.23;76.72;98300.29;105151;1271;72894;-24
2022/02/05 06:24:04;;;;;;;7.40;5.50;;;;;;;0.16;77.18;98297.04;105285;1271;62631;-24
2022/02/05 06:26:32;;;;;;;8.20;4.70;;;;;;;0.57;76.11;98300.73;105167;1271;61132;-24
2022/02/05 06:29:00;;;;;;;7.00;3.70;;;;;;;0.94;74.37;98293.35;105203;1271;74698;-24
2022/02/05 06:31:29;;;;;;;11.60;7.20;;;;;;;0.86;74.26;98292.40;105281;1271;75863;-24
2022/02/05 06:33:57;;;;;;;14.50;7.40;;;;;;;0.61;74.81;98293.02;105324;1271;74315;-24
2022/02/05 06:36:30;;;;;;;10.30;6.30;;;;;;;0.40;75.77;98294.78;105237;1271;61032;-25
2022/02/05 06:38:58;;;;;;;13.80;8.80;;;;;;;0.22;76.46;98294.68;104925;1271;62018;-24
2022/02/05 06:41:26;;;;;;;7.00;5.50;;;;;;;0.47;76.08;98289.33;104984;1271;75496;-24
2022/02/05 06:43:54;;;;;;;9.80;6.20;;;;;;;0.69;74.99;98294.15;105128;1271;74944;-23
2022/02/05 06:46:23;;;;;;;12.60;7.70;;;;;;;0.64;74.88;98286.38;105215;1270;74308;-24
2022/02/05 06:48:52;;;;;;;7.10;4.90;;;;;;;0.57;75.20;98288.81;105311;1270;61012;-24
2022/02/05 06:51:21;;;;;;;11.50;7.00;;;;;;;0.45;75.23;98283.61;105323;1271;61030;-24
2022/02/05 06:53:49;;;;;;;10.70;6.80;;;;;;;0.29;75.61;98278.45;105318;1271;74391;-24
2022/02/05 06:56:18;;;;;;;7.20;5.00;;;;;;;0.40;75.68;98278.23;105275;1271;75930;-24
2022/02/05 06:58:49;;;;;;;12.10;6.80;;;;;;;0.78;74.26;98267.04;105028;1271;74465;-23
2022/02/05 07:01:17;;;;;;;12.10;7.90;;;;;;;0.76;73.70;98265.06;105123;1271;61052;-23
2022/02/05 07:03:46;;;;;;;13.30;8.00;;;;;;;0.64;74.11;98266.20;105155;1271;61824;-24
2022/02/05 07:06:15;;;;;;;9.80;6.10;;;;;;;0.41;74.75;98268.62;105085;1271;75230;-24
2022/02/05 07:08:45;;;;;;;15.20;8.80;;;;;;;0.28;75.04;98263.46;104939;1271;76059;-24
2022/02/05 07:11:13;;;;;;;8.40;5.60;;;;;;;0.35;75.09;98263.78;104975;1271;74146;-24
2022/02/05 07:13:42;;;;;;;10.50;6.40;;;;;;;0.73;73.90;98261.46;104917;1271;61041;-23
2022/02/05 07:16:53;;;;;;;8.40;5.50;;;;;;;0.93;73.16;98260.91;105001;1271;60974;-24
2022/02/05 07:21:42;;;;;;;8.10;6.10;;;;;;;0.72;73.15;98257.77;105310;1271;74958;-23
2022/02/05 07:24:21;;;;;;;12.50;7.50;;;;;;;0.66;73.47;98253.15;105309;1271;74413;-23
2022/02/05 07:29:38;;;;;;;8.10;5.00;;;;;;;1.27;71.84;98249.48;105238;1270;61049;-22
2022/02/05 07:32:07;;;;;;;14.10;8.10;;;;;;;1.43;70.68;98245.71;105164;1271;74634;-23
2022/02/05 07:34:35;;;;;;;12.30;6.90;;;;;;;1.30;70.78;98244.36;104807;1271;75166;-23
2022/02/05 07:37:05;;;;;;;14.40;8.40;;;;;;;1.17;71.16;98242.14;105052;1271;74564;-23
2022/02/05 07:39:42;;;;;;;12.30;8.20;;;;;;;1.01;71.33;98238.13;105088;1271;61067;-23
2022/02/05 07:42:12;;;;;;;13.10;7.80;;;;;;;0.83;71.87;98236.02;105181;1271;61772;-23
2022/02/05 07:44:42;;;;;;;16.70;9.20;;;;;;;0.86;72.53;98227.81;105163;1271;75440;-23
2022/02/05 07:47:10;;;;;;;12.90;7.00;;;;;;;1.41;71.54;98228.17;105309;1271;75684;-23
2022/02/05 07:49:42;;;;;;;15.30;8.20;;;;;;;1.77;69.54;98222.38;105191;1271;73153;-23
2022/02/05 07:52:11;;;;;;;12.00;7.20;;;;;;;1.72;68.85;98226.45;104950;1271;61088;-23
2022/02/05 07:54:39;;;;;;;14.90;8.80;;;;;;;1.54;68.91;98224.20;104951;1271;61153;-23
2022/02/05 07:57:08;;;;;;;16.70;9.20;;;;;;;1.33;69.05;98226.06;104834;1271;74669;-23
2022/02/05 07:59:40;;;;;;;12.30;7.30;;;;;;;1.16;69.42;98221.22;104899;1271;75011;-23
2022/02/05 08:02:09;;;;;;;9.70;6.30;;;;;;;0.98;70.23;98222.50;104870;1271;73743;-23
2022/02/05 08:04:37;;;;;;;15.50;8.30;;;;;;;0.87;70.53;98225.02;105315;1271;61335;-22
2022/02/05 08:07:08;;;;;;;12.50;8.60;;;;;;;1.05;70.42;98225.40;104980;1271;61146;-23
2022/02/05 08:09:53;;;;;;;9.30;6.70;;;;;;;1.52;68.80;98228.23;104981;1271;75534;-23
2022/02/05 08:12:21;;;;;;;14.10;8.30;;;;;;;1.57;68.30;98222.47;104884;1271;76022;-24
2022/02/05 08:14:52;;;;;;;19.30;9.70;;;;;;;1.44;68.14;98214.68;104943;1271;74406;-24
2022/02/05 08:17:25;;;;;;;10.40;6.30;;;;;;;1.22;68.87;98214.02;105158;1271;61022;-25
2022/02/05 08:19:53;;;;;;;14.00;7.50;;;;;;;1.16;69.02;98211.94;105294;1271;61220;-23
2022/02/05 08:22:27;;;;;;;17.50;8.80;;;;;;;1.10;68.89;98200.83;105304;1271;75645;-23
2022/02/05 08:24:58;;;;;;;11.90;7.50;;;;;;;1.03;69.33;98193.01;104990;1274;74347;-24
2022/02/05 08:27:27;;;;;;;6.40;4.30;;;;;;;1.08;69.46;98202.31;105138;1273;71560;-23
2022/02/05 08:29:58;;;;;;;14.20;6.90;;;;;;;1.59;68.28;98208.16;105304;1271;61143;-24
2022/02/05 08:32:28;;;;;;;13.70;8.10;;;;;;;1.84;66.64;98205.35;105272;1271;61934;-23
2022/02/05 08:35:00;;;;;;;10.20;5.40;;;;;;;1.77;66.50;98211.91;105307;1271;75589;-24
2022/02/05 08:37:30;;;;;;;12.50;7.10;;;;;;;1.76;66.62;98206.69;105141;1274;75991;-24
2022/02/05 08:39:59;;;;;;;7.20;5.00;;;;;;;1.54;67.05;98201.63;105106;1271;74517;-23
2022/02/05 08:42:27;;;;;;;14.00;7.20;;;;;;;1.29;67.93;98201.33;104844;1271;61148;-23
2022/02/05 08:44:56;;;;;;;7.30;4.80;;;;;;;1.23;68.13;98200.27;104974;1271;61131;-23
2022/02/05 08:47:24;;;;;;;13.20;6.00;;;;;;;1.02;68.77;98199.92;104923;1271;75553;-23
2022/02/05 08:49:53;;;;;;;9.80;5.50;;;;;;;0.97;68.77;98203.13;104856;1271;74543;-24
2022/02/05 08:52:22;;;;;;;7.60;4.80;;;;;;;1.01;68.89;98208.15;104940;1271;73404;-24
2022/02/05 08:54:51;;;;;;;11.80;6.90;;;;;;;1.58;67.17;98211.48;104963;1271;60990;-23
2022/02/05 08:57:19;;;;;;;10.70;6.10;;;;;;;1.95;65.82;98205.70;104836;1271;61089;-23
2022/02/05 08:59:54;;;;;;;10.80;5.20;;;;;;;1.90;65.86;98206.36;104976;1271;73376;-23
2022/02/05 09:07:19;;;;;;;15.60;6.10;;;;;;;1.68;65.89;98197.90;104959;1271;61141;-23
2022/02/05 09:15:01;;;;;;;9.30;5.30;;;;;;;1.31;67.33;98200.35;104886;1271;75269;-24
2022/02/05 09:17:29;;;;;;;13.50;6.70;;;;;;;1.33;67.37;98198.15;104920;1271;74230;-23
2022/02/05 09:19:57;;;;;;;14.70;8.60;;;;;;;1.27;67.67;98194.79;105018;1270;61064;-23
2022/02/05 09:22:29;;;;;;;9.00;5.20;;;;;;;1.44;67.13;98190.58;105315;1271;61123;-23
2022/02/05 09:24:58;;;;;;;14.70;6.10;;;;;;;1.98;64.92;98197.51;105123;1271;75608;-23
2022/02/05 09:27:37;;;;;;;9.50;5.50;;;;;;;2.16;64.31;98188.58;105024;1271;75179;-23
2022/02/05 09:30:13;;;;;;;10.80;6.60;;;;;;;2.22;63.96;98188.58;104916;1271;72945;-23
2022/02/05 09:32:42;;;;;;;9.90;5.90;;;;;;;1.99;64.37;98176.95;104966;1272;61124;-23
2022/02/05 09:35:12;;;;;;;10.90;6.90;;;;;;;1.94;64.54;98170.88;104891;1271;62030;-23
2022/02/05 09:37:41;;;;;;;10.90;6.10;;;;;;;1.85;64.66;98169.67;104958;1271;74806;-23
2022/02/05 09:40:09;;;;;;;12.90;6.40;;;;;;;1.64;65.11;98170.77;104942;1271;76389;-23
2022/02/05 09:42:47;;;;;;;10.50;5.30;;;;;;;1.55;65.57;98164.23;105085;1271;75025;-23
2022/02/05 09:45:15;;;;;;;17.40;9.20;;;;;;;1.42;66.07;98161.08;105009;1271;61013;-23
2022/02/05 09:47:47;;;;;;;11.60;7.00;;;;;;;1.32;66.15;98162.84;104824;1271;61173;-23
2022/02/05 09:50:15;;;;;;;7.90;5.40;;;;;;;1.33;66.56;98155.77;104829;1271;75576;-24
2022/02/05 09:52:49;;;;;;;12.00;5.10;;;;;;;1.37;66.31;98155.20;104930;1271;76064;-23
2022/02/05 09:55:17;;;;;;;16.80;6.00;;;;;;;1.23;66.89;98151.73;104989;1271;71571;-23
2022/02/05 09:57:46;;;;;;;9.90;6.90;;;;;;;1.19;67.57;98150.42;104931;1271;62746;-23
2022/02/05 10:00:16;;;;;;;10.80;6.30;;;;;;;1.50;67.17;98151.20;104873;1271;62108;-23
2022/02/05 10:02:50;;;;;;;10.50;6.20;;;;;;;1.96;65.83;98150.05;104817;1271;73914;-24
2022/02/05 10:05:22;;;;;;;11.30;5.50;;;;;;;2.15;65.29;98149.76;104899;1271;75186;-24
2022/02/05 10:08:07;;;;;;;16.00;7.00;;;;;;;1.98;65.75;98147.36;104939;1271;73618;-23
2022/02/05 10:10:38;;;;;;;11.80;6.50;;;;;;;1.81;66.36;98142.19;104672;1272;61363;-23
2022/02/05 10:13:10;;;;;;;8.20;4.90;;;;;;;1.61;67.04;98137.58;105062;1272;61026;-23
2022/02/05 10:15:40;;;;;;;8.90;5.30;;;;;;;1.35;67.63;98142.67;105143;1271;74527;-24
2022/02/05 10:18:31;;;;;;;10.50;5.70;;;;;;;1.26;68.22;98144.90;105150;1271;75365;-23
2022/02/05 10:21:20;;;;;;;14.40;7.80;;;;;;;1.25;68.06;98141.51;104988;1271;73537;-23
2022/02/05 10:24:04;;;;;;;13.60;7.40;;;;;;;1.24;67.83;98141.27;105184;1271;61041;-23
2022/02/05 10:26:40;;;;;;;16.30;9.50;;;;;;;1.33;67.19;98137.45;105130;1271;62103;-24
2022/02/05 10:29:14;;;;;;;12.40;7.20;;;;;;;1.64;67.00;98135.50;105059;1271;73699;-23
2022/02/05 10:32:10;;;;;;;9.40;6.40;;;;;;;2.23;65.07;98132.66;105155;1271;76048;-23
2022/02/05 10:34:57;;;;;;;12.90;8.20;;;;;;;2.36;64.25;98125.19;105173;1271;74229;-23
2022/02/05 10:37:34;;;;;;;11.30;5.20;;;;;;;2.24;64.63;98125.17;104886;1271;61156;-23
2022/02/05 10:40:08;;;;;;;15.90;6.70;;;;;;;2.24;64.28;98127.27;105153;1271;61086;-23
2022/02/05 10:45:50;;;;;;;8.50;5.70;;;;;;;1.90;65.86;98125.55;104994;1272;75580;-23
2022/02/05 10:48:19;;;;;;;10.70;7.80;;;;;;;1.95;65.76;98120.35;105139;1271;74173;-23
2022/02/05 10:50:50;;;;;;;19.90;9.50;;;;;;;1.94;65.45;98119.35;104856;1271;61291;-24
2022/02/05 10:53:42;;;;;;;15.20;9.30;;;;;;;1.93;65.35;98124.71;104838;1271;61088;-23
2022/02/05 11:07:11;;;;;;;10.60;6.50;;;;;;;2.25;66.33;98131.99;104842;1271;61168;-22
2022/02/05 11:09:44;;;;;;;10.70;5.00;;;;;;;2.75;65.20;98136.57;104965;1271;75281;-23
2022/02/05 11:20:08;;;;;;;8.30;5.60;;;;;;;2.22;67.53;98129.78;105112;1270;61439;-23
2022/02/05 11:22:37;;;;;;;;;;;;;;;2.05;68.67;98125.17;105193;1271;74909;-23
2022/02/05 11:25:06;;;;;;;11.60;6.60;;;;;;;1.92;70.53;98133.70;105133;1271;75572;-23
2022/02/05 11:27:40;;;;;;;8.50;5.50;;;;;;;1.72;73.17;98124.96;105048;1271;72388;-23
2022/02/05 11:30:29;;;;;;;8.90;5.70;;;;;;;2.08;73.84;98132.56;104828;1271;61102;-23
2022/02/05 11:33:06;;;;;;;11.80;6.80;;;;;;;2.53;72.49;98128.23;105228;1271;61121;-23
2022/02/05 11:35:47;;;;;;;10.10;5.20;;;;;;;2.57;72.46;98136.07;105121;1271;75642;-23
2022/02/05 11:38:25;;;;;;;13.40;6.00;;;;;;;2.41;73.35;98134.66;105085;1271;74308;-23
2022/02/05 11:40:55;;;;;;;12.20;6.80;;;;;;;2.19;74.73;98133.60;104871;1271;74454;-23
2022/02/05 11:43:31;;;;;;;10.30;6.30;;;;;;;2.08;74.40;98125.05;105201;1271;61054;-23
2022/02/05 11:46:12;;;;;;;8.00;4.80;;;;;;;1.92;75.74;98122.56;105126;1271;61546;-23
2022/02/05 11:48:49;;;;;;;10.80;5.40;;;;;;;1.84;76.69;98124.92;104969;1271;75486;-23
2022/02/05 11:51:28;;;;;;;9.10;5.10;;;;;;;2.43;75.20;98126.09;105206;1271;76191;-24
2022/02/05 11:53:59;;;;;;;5.80;4.10;;;;;;;2.76;73.84;98124.52;104898;1272;72532;-23
2022/02/05 11:57:02;;;;;;;7.70;3.90;;;;;;;2.69;73.58;98124.30;104781;1272;61141;-23
2022/02/05 11:59:56;;;;;;;4.90;3.50;;;;;;;2.44;74.52;98126.20;104803;1271;62162;-24
2022/02/05 12:02:26;;;;;;;;;;;;;;;2.19;75.58;98127.40;105153;1271;74343;-23
2022/02/05 12:05:31;;;;;;;9.40;5.20;;;;;;;1.99;76.47;98127.11;104955;1271;72527;-23
2022/02/05 12:08:03;;;;;;;8.40;5.00;;;;;;;1.85;77.89;98121.98;104545;1277;73540;-23
2022/02/05 12:10:39;;;;;;;9.10;5.00;;;;;;;2.39;76.81;98123.80;104351;1277;61262;-23
2022/02/05 12:13:23;;;;;;;12.10;7.00;;;;;;;2.74;75.31;98124.84;104348;1277;61012;-23
2022/02/05 12:15:55;;;;;;;7.00;5.00;;;;;;;2.76;75.45;98126.06;104656;1277;75574;-23
2022/02/05 12:18:26;;;;;;;12.90;8.00;;;;;;;2.60;75.51;98121.43;104628;1277;75731;-23
2022/02/05 12:26:18;;;;;;;9.60;6.20;;;;;;;1.99;78.21;98122.63;104712;1277;61269;-23
2022/02/05 12:28:48;;;;;;;9.50;5.50;;;;;;;2.44;77.70;98132.02;104645;1277;74523;-23
2022/02/05 12:31:17;;;;;;;10.40;5.80;;;;;;;2.86;75.95;98130.94;104689;1277;76416;-23
2022/02/05 12:33:53;;;;;;;13.80;5.70;;;;;;;3.00;75.29;98136.60;104665;1277;74375;-23
2022/02/05 12:36:29;;;;;;;9.50;6.40;;;;;;;2.80;75.35;98130.82;104556;1278;62289;-23
2022/02/05 12:38:58;;;;;;;10.80;6.00;;;;;;;2.53;76.48;98138.49;104626;1278;62007;-23
2022/02/05 12:41:26;;;;;;;10.40;6.30;;;;;;;2.33;77.08;98143.86;104443;1277;75739;-23
2022/02/05 12:43:57;;;;;;;9.10;5.50;;;;;;;2.17;77.60;98151.70;104717;1271;76232;-23
2022/02/05 12:46:28;;;;;;;7.00;4.30;;;;;;;2.28;78.14;98151.86;104836;1271;74813;-23
2022/02/05 12:49:04;;;;;;;12.70;6.90;;;;;;;2.83;76.07;98158.38;104954;1271;62067;-23
2022/02/05 12:51:33;;;;;;;9.50;5.10;;;;;;;3.07;75.01;98162.84;104831;1271;61771;-24
2022/02/05 12:54:14;;;;;;;10.50;6.20;;;;;;;2.83;75.31;98159.58;104966;1271;75577;-23
2022/02/05 12:56:44;;;;;;;8.60;5.30;;;;;;;2.60;76.07;98159.84;104802;1271;75719;-23
2022/02/05 12:59:24;;;;;;;11.80;6.80;;;;;;;2.36;76.97;98156.22;104775;1271;71619;-23
2022/02/05 13:02:07;;;;;;;9.00;5.60;;;;;;;2.14;77.97;98160.06;104974;1271;61161;-23
2022/02/05 13:04:39;;;;;;;9.80;5.90;;;;;;;2.08;78.21;98160.42;105017;1271;61124;-24
2022/02/05 13:07:08;;;;;;;6.40;4.20;;;;;;;2.47;76.80;98158.10;104762;1272;73808;-23
2022/02/05 13:09:44;;;;;;;13.90;4.70;;;;;;;2.77;75.58;98163.39;105068;1271;76488;-23
2022/02/05 13:12:21;;;;;;;5.40;4.40;;;;;;;2.72;75.37;98165.07;104666;1271;73320;-23
2022/02/05 13:15:03;;;;;;;7.30;5.30;;;;;;;2.56;75.80;98162.52;104762;1270;61241;-23
2022/02/05 13:26:11;;;;;;;7.80;3.60;;;;;;;2.83;74.29;98177.71;105140;1271;72560;-23
2022/02/05 13:36:50;;;;;;;6.60;4.60;;;;;;;2.60;73.52;98180.77;104998;1271;75752;-23
2022/02/05 13:45:25;;;;;;;8.60;4.80;;;;;;;2.44;72.93;98170.57;104933;1271;61055;-23
2022/02/05 13:47:53;;;;;;;9.00;4.50;;;;;;;2.75;71.27;98171.08;104582;1277;75598;-23
2022/02/05 13:50:23;;;;;;;12.80;3.20;;;;;;;2.70;71.40;98167.63;104371;1277;222748;-23
2022/02/05 13:52:55;;;;;;;7.10;4.50;;;;;;;2.62;71.44;98170.16;104336;1277;74590;-23
2022/02/05 13:55:31;;;;;;;6.50;3.60;;;;;;;2.26;72.38;98168.98;104295;1277;61180;-22
2022/02/05 13:58:14;;;;;;;5.70;3.50;;;;;;;2.26;72.66;98180.10;104419;1277;61054;-22
2022/02/05 14:01:02;;;;;;;3.70;2.90;;;;;;;2.22;72.87;98189.77;104618;1277;75325;-23
2022/02/05 14:03:32;;;;;;;4.80;3.40;;;;;;;2.31;72.27;98183.56;104460;1277;75960;-23
2022/02/05 14:06:14;;;;;;;3.70;2.70;;;;;;;2.73;70.62;98173.05;104644;1277;72775;-24
2022/02/05 14:08:44;;;;;;;3.90;3.40;;;;;;;2.78;69.87;98178.61;104547;1277;60994;-24
2022/02/05 14:11:14;;;;;;;3.90;2.90;;;;;;;2.54;70.76;98196.38;104561;1277;61251;-23
2022/02/05 14:13:43;;;;;;;3.30;2.10;;;;;;;2.46;70.88;98199.95;104429;1277;75292;-23
2022/02/05 14:16:12;;;;;;;4.40;2.60;;;;;;;2.32;71.68;98204.07;104383;1277;75974;-23
2022/02/05 14:18:48;;;;;;;4.90;2.50;;;;;;;2.08;71.91;98197.77;104543;1277;73324;-23
2022/02/05 14:21:17;;;;;;;2.10;1.70;;;;;;;1.98;72.21;98205.71;104488;1277;61010;-23
2022/02/05 14:23:51;;;;;;;4.70;2.70;;;;;;;2.17;71.68;98215.56;104795;1271;60926;-23
2022/02/05 14:26:32;;;;;;;4.00;2.60;;;;;;;2.59;70.25;98220.77;104757;1271;74320;-23
2022/02/05 14:29:02;;;;;;;2.70;2.10;;;;;;;2.57;69.75;98220.88;104844;1271;76107;-23
2022/02/05 14:31:33;;;;;;;3.10;2.10;;;;;;;2.35;70.14;98225.45;104898;1271;74629;-23
2022/02/05 14:34:10;;;;;;;4.70;2.90;;;;;;;2.19;70.63;98220.05;105174;1271;61140;-23
2022/02/05 14:41:58;;;;;;;3.30;2.20;;;;;;;1.78;71.95;98219.38;104618;1274;74755;-24
2022/02/05 14:44:29;;;;;;;2.90;1.90;;;;;;;1.81;71.83;98224.00;104686;1272;76437;-23
2022/02/05 14:46:58;;;;;;;2.70;1.90;;;;;;;2.19;70.54;98227.94;104867;1271;61148;-23
2022/02/05 14:49:26;;;;;;;3.90;2.50;;;;;;;2.32;69.98;98236.57;104768;1270;61235;-23
2022/02/05 14:51:57;;;;;;;2.10;1.50;;;;;;;2.17;70.44;98236.83;104837;1271;75599;-23
2022/02/05 14:54:25;;;;;;;3.10;2.20;;;;;;;2.05;70.72;98234.80;104776;1271;75158;-24
2022/02/05 14:56:54;;;;;;;3.20;1.80;;;;;;;1.93;70.82;98247.08;104857;1271;72027;-23
2022/02/05 14:59:23;;;;;;;3.90;1.80;;;;;;;1.75;71.75;98243.55;105159;1271;61161;-23
2022/02/05 15:01:51;;;;;;;3.10;2.40;;;;;;;1.67;72.00;98245.38;105177;1271;61337;-23
2022/02/05 15:04:20;;;;;;;2.70;2.00;;;;;;;1.49;72.47;98246.02;104993;1271;73628;-23